Terminal Aerodrome Forecast
Issued by NWS

Current Version | Previous Version | Text Only | Print | Product List | Glossary On
Versions: 1 2 3 4 5 6 7 8 9 10 11 12 13 14 15 16 17 18 19 20
000
FTUS42 KGSP 191957 AAA
TAFHKY
TAF AMD
KHKY 191957Z 1920/2018 VRB02KT 6SM BR OVC004
      TEMPO 1922/2002 3SM BR
     FM200300 00000KT 1/2SM FG OVC003
     FM200500 VRB02KT 1/4SM FG OVC003
     FM201200 19003KT 3/4SM BR OVC002
     FM201300 19003KT 1SM BR OVC003
     FM201500 20005KT P6SM BKN005=

USA.gov is the U.S. government's official web portal to all federal, state and local government web resources and services.